createdAt,value
2023-02-05T00:01:33.217Z,35.30
2023-02-05T00:04:00.767Z,34.65
2023-02-05T00:06:28.955Z,34.15
2023-02-05T00:08:58.214Z,34.22
2023-02-05T00:11:26.291Z,34.13
2023-02-05T00:13:53.818Z,34.28
2023-02-05T00:16:25.148Z,38.45
2023-02-05T00:18:53.274Z,36.92
2023-02-05T00:21:21.758Z,37.30
2023-02-05T00:23:49.917Z,37.85
2023-02-05T00:26:17.680Z,38.10
2023-02-05T00:28:45.459Z,40.22
2023-02-05T00:31:15.996Z,39.80
2023-02-05T00:33:44.113Z,40.00
2023-02-05T00:36:13.090Z,41.70
2023-02-05T00:38:41.443Z,44.10
2023-02-05T00:41:08.954Z,44.10
2023-02-05T00:43:36.382Z,43.60
2023-02-05T00:46:03.803Z,45.75
2023-02-05T00:48:31.215Z,45.92
2023-02-05T00:50:58.540Z,44.13
2023-02-05T00:53:26.179Z,43.83
2023-02-05T00:55:53.728Z,41.45
2023-02-05T00:58:21.702Z,42.30
2023-02-05T01:00:51.301Z,42.65
2023-02-05T01:03:19.972Z,40.92
2023-02-05T01:05:47.559Z,41.03
2023-02-05T01:08:15.200Z,40.70
2023-02-05T01:10:47.853Z,39.42
2023-02-05T01:13:17.958Z,37.60
2023-02-05T01:15:46.002Z,36.00
2023-02-05T01:18:13.844Z,35.20
2023-02-05T01:20:42.108Z,34.35
2023-02-05T01:23:10.446Z,33.00
2023-02-05T01:25:37.838Z,31.90
2023-02-05T01:28:06.750Z,30.17
2023-02-05T01:30:34.699Z,28.45
2023-02-05T01:33:02.502Z,25.90
2023-02-05T01:35:30.193Z,22.65
2023-02-05T01:37:57.654Z,22.02
2023-02-05T01:40:25.207Z,20.90
2023-02-05T01:42:52.524Z,19.88
2023-02-05T01:45:22.833Z,17.35
2023-02-05T01:47:53.660Z,15.00
2023-02-05T01:50:48.026Z,13.95
2023-02-05T01:53:35.993Z,11.98
2023-02-05T01:56:15.422Z,11.18
2023-02-05T01:58:58.370Z,9.93
2023-02-05T02:01:29.988Z,9.15
2023-02-05T02:03:58.749Z,8.30
2023-02-05T02:06:26.128Z,7.85
2023-02-05T02:08:53.775Z,7.28
2023-02-05T02:11:22.739Z,6.75
2023-02-05T02:13:51.825Z,7.00
2023-02-05T02:16:19.503Z,6.45
2023-02-05T02:18:47.175Z,6.72
2023-02-05T02:21:26.138Z,5.90
2023-02-05T02:24:22.755Z,6.30
2023-02-05T02:27:14.030Z,5.40
2023-02-05T02:29:49.260Z,5.20
2023-02-05T02:32:26.329Z,4.10
2023-02-05T02:35:01.606Z,4.07
2023-02-05T02:37:39.585Z,3.47
2023-02-05T02:40:23.633Z,4.18
2023-02-05T02:43:15.643Z,3.67
2023-02-05T02:45:56.591Z,3.53
2023-02-05T02:48:25.460Z,3.58
2023-02-05T02:50:54.418Z,3.33
2023-02-05T02:53:25.120Z,3.20
2023-02-05T02:55:53.184Z,3.45
2023-02-05T02:58:30.245Z,3.40
2023-02-05T03:00:58.505Z,3.60
2023-02-05T03:03:27.252Z,3.35
2023-02-05T03:05:57.306Z,4.00
2023-02-05T03:08:46.040Z,3.63
2023-02-05T03:11:14.596Z,3.47
2023-02-05T03:13:43.584Z,3.65
2023-02-05T03:16:11.331Z,3.50
2023-02-05T03:18:38.904Z,3.60
2023-02-05T03:21:26.213Z,3.60
2023-02-05T03:23:53.635Z,3.55
2023-02-05T03:26:32.113Z,3.72
2023-02-05T03:29:02.506Z,4.07
2023-02-05T03:31:42.898Z,4.15
2023-02-05T03:34:31.861Z,4.47
2023-02-05T03:37:31.412Z,4.90
2023-02-05T03:40:23.170Z,4.13
2023-02-05T03:43:30.398Z,5.43
2023-02-05T03:46:13.231Z,5.00
2023-02-05T03:49:02.352Z,5.18
2023-02-05T03:51:57.281Z,5.25
2023-02-05T03:54:51.948Z,5.78
2023-02-05T03:57:37.715Z,6.07
2023-02-05T04:00:05.682Z,6.75
2023-02-05T04:02:34.277Z,7.75
2023-02-05T04:05:02.599Z,7.57
2023-02-05T04:07:30.164Z,7.53
2023-02-05T04:09:57.639Z,8.70
2023-02-05T04:12:26.427Z,9.38
2023-02-05T04:14:53.844Z,10.45
2023-02-05T04:17:21.357Z,9.90
2023-02-05T04:19:48.680Z,10.88
2023-02-05T04:22:16.275Z,11.70
2023-02-05T04:24:43.599Z,12.60
2023-02-05T04:27:11.020Z,12.95
2023-02-05T04:29:38.441Z,13.32
2023-02-05T04:32:05.973Z,13.23
2023-02-05T04:34:33.318Z,14.27
2023-02-05T04:37:00.741Z,14.25
2023-02-05T04:39:28.234Z,14.88
2023-02-05T04:41:55.538Z,15.55
2023-02-05T04:44:22.987Z,15.48
2023-02-05T04:46:50.351Z,15.35
2023-02-05T04:49:17.673Z,15.50
2023-02-05T04:51:45.128Z,14.88
2023-02-05T04:54:12.537Z,11.32
2023-02-05T04:56:40.556Z,9.85
2023-02-05T04:59:08.061Z,8.15
2023-02-05T05:01:35.533Z,7.75
2023-02-05T05:04:02.803Z,4.20
2023-02-05T05:06:30.277Z,2.67
2023-02-05T05:08:57.700Z,2.28
2023-02-05T05:11:25.822Z,2.15
2023-02-05T05:13:53.244Z,2.10
2023-02-05T05:16:20.820Z,2.10
2023-02-05T05:18:48.266Z,1.95
2023-02-05T05:21:15.608Z,2.50
2023-02-05T05:23:42.981Z,2.20
2023-02-05T05:26:12.192Z,2.60
2023-02-05T05:28:39.713Z,3.30
2023-02-05T05:31:10.100Z,2.45
2023-02-05T05:33:37.923Z,2.92
2023-02-05T05:36:06.270Z,3.13
2023-02-05T05:38:33.780Z,3.03
2023-02-05T05:41:20.016Z,3.22
2023-02-05T05:43:47.716Z,3.33
2023-02-05T05:46:22.064Z,2.83
2023-02-05T05:48:50.841Z,2.72
2023-02-05T05:51:18.919Z,3.38
2023-02-05T05:53:47.032Z,3.15
2023-02-05T05:56:15.154Z,3.20
2023-02-05T05:58:42.938Z,2.60
2023-02-05T06:01:10.946Z,3.17
2023-02-05T06:03:38.300Z,3.00
2023-02-05T06:06:07.452Z,3.15
2023-02-05T06:08:35.126Z,3.05
2023-02-05T06:11:02.557Z,2.75
2023-02-05T06:13:29.965Z,2.28
2023-02-05T06:15:57.497Z,2.72
2023-02-05T06:18:25.271Z,2.13
2023-02-05T06:20:52.693Z,1.83
2023-02-05T06:23:20.082Z,2.80
2023-02-05T06:25:47.562Z,2.08
2023-02-05T06:28:14.907Z,2.08
2023-02-05T06:30:42.319Z,2.50
2023-02-05T06:33:12.841Z,2.53
2023-02-05T06:35:40.999Z,2.33
2023-02-05T06:38:08.666Z,3.05
2023-02-05T06:40:36.124Z,2.85
2023-02-05T06:43:03.642Z,2.72
2023-02-05T06:45:33.671Z,2.42
2023-02-05T06:48:01.296Z,2.75
2023-02-05T06:50:28.688Z,2.78
2023-02-05T06:52:56.065Z,2.83
2023-02-05T06:55:23.560Z,2.38
2023-02-05T06:57:51.125Z,2.90
2023-02-05T07:00:18.779Z,3.63
2023-02-05T07:02:46.314Z,3.78
2023-02-05T07:05:13.743Z,3.50
2023-02-05T07:07:41.169Z,3.70
2023-02-05T07:10:08.810Z,3.75
2023-02-05T07:12:36.208Z,4.45
2023-02-05T07:15:03.667Z,3.92
2023-02-05T07:17:31.170Z,4.22
2023-02-05T07:19:58.846Z,3.85
2023-02-05T07:22:26.322Z,3.15
2023-02-05T07:24:53.660Z,3.97
2023-02-05T07:27:21.159Z,3.88
2023-02-05T07:29:48.587Z,3.83
2023-02-05T07:32:16.222Z,3.38
2023-02-05T07:34:44.032Z,3.75
2023-02-05T07:37:13.556Z,3.85
2023-02-05T07:39:43.762Z,4.25
2023-02-05T07:42:23.616Z,4.32
2023-02-05T07:44:51.040Z,3.75
2023-02-05T07:47:18.579Z,3.78
2023-02-05T07:49:45.976Z,4.50
2023-02-05T07:52:13.572Z,4.22
2023-02-05T07:54:41.683Z,3.75
2023-02-05T07:57:11.648Z,4.13
2023-02-05T07:59:39.717Z,4.28
2023-02-05T08:02:07.847Z,4.05
2023-02-05T08:04:35.517Z,3.97
2023-02-05T08:07:03.372Z,4.78
2023-02-05T08:09:31.940Z,4.47
2023-02-05T08:11:59.884Z,4.07
2023-02-05T08:14:27.535Z,4.53
2023-02-05T08:16:54.980Z,4.72
2023-02-05T08:19:22.596Z,4.55
2023-02-05T08:21:50.032Z,5.25
2023-02-05T08:24:17.889Z,4.45
2023-02-05T08:26:45.222Z,5.05
2023-02-05T08:29:15.344Z,4.70
2023-02-05T08:31:42.898Z,4.57
2023-02-05T08:34:10.267Z,5.43
2023-02-05T08:36:37.763Z,4.88
2023-02-05T08:39:05.333Z,4.90
2023-02-05T08:41:32.734Z,6.03
2023-02-05T08:44:00.076Z,4.68
2023-02-05T08:46:37.253Z,4.88
2023-02-05T08:49:11.399Z,5.18
2023-02-05T08:51:38.908Z,4.93
2023-02-05T08:54:09.326Z,5.18
2023-02-05T08:56:36.635Z,6.18
2023-02-05T08:59:04.048Z,5.68
2023-02-05T09:01:31.534Z,6.15
2023-02-05T09:03:58.911Z,5.97
2023-02-05T09:06:26.259Z,5.85
2023-02-05T09:08:53.722Z,6.85
2023-02-05T09:11:22.360Z,6.30
2023-02-05T09:13:49.807Z,6.07
2023-02-05T09:16:17.187Z,5.53
2023-02-05T09:18:44.619Z,6.35
2023-02-05T09:21:13.219Z,5.95
2023-02-05T09:23:40.614Z,6.30
2023-02-05T09:26:09.236Z,6.90
2023-02-05T09:28:36.972Z,6.50
2023-02-05T09:31:10.061Z,6.05
2023-02-05T09:33:37.855Z,6.43
2023-02-05T09:36:14.020Z,6.60
2023-02-05T09:38:41.738Z,6.88
2023-02-05T09:41:13.926Z,5.88
2023-02-05T09:44:00.750Z,7.32
2023-02-05T09:46:28.173Z,6.95
2023-02-05T09:49:13.145Z,7.40
2023-02-05T09:51:52.281Z,7.60
2023-02-05T09:54:40.804Z,7.05
2023-02-05T09:57:15.854Z,7.45
2023-02-05T09:59:46.576Z,6.15
2023-02-05T10:02:56.153Z,6.30
2023-02-05T10:05:26.073Z,6.85
2023-02-05T10:08:16.183Z,6.47
2023-02-05T10:10:50.801Z,7.03
2023-02-05T10:13:18.114Z,7.00
2023-02-05T10:16:11.460Z,6.60
2023-02-05T10:21:24.808Z,6.95
2023-02-05T10:23:55.015Z,8.02
2023-02-05T10:26:26.498Z,7.00
2023-02-05T10:29:34.874Z,7.07
2023-02-05T10:32:18.889Z,6.13
2023-02-05T10:35:13.349Z,6.85
2023-02-05T10:37:52.386Z,7.30
2023-02-05T10:40:24.026Z,7.80
2023-02-05T10:43:02.382Z,6.45
2023-02-05T10:45:30.896Z,7.00
2023-02-05T10:48:16.749Z,6.40
2023-02-05T10:50:50.426Z,7.05
2023-02-05T10:53:20.490Z,6.43
2023-02-05T10:55:48.051Z,8.07
2023-02-05T10:58:40.422Z,7.03
2023-02-05T11:01:19.277Z,6.95
2023-02-05T11:03:59.436Z,6.88
2023-02-05T11:06:29.185Z,6.20
2023-02-05T11:08:56.741Z,6.70
2023-02-05T11:11:29.857Z,6.65
2023-02-05T11:14:02.854Z,6.13
2023-02-05T11:16:39.269Z,7.07
2023-02-05T11:19:20.787Z,6.72
2023-02-05T11:21:50.161Z,7.15
2023-02-05T11:24:31.152Z,6.72
2023-02-05T11:27:24.207Z,6.82
2023-02-05T11:29:51.594Z,5.70
2023-02-05T11:32:19.998Z,6.45
2023-02-05T11:34:47.763Z,6.35
2023-02-05T11:37:19.900Z,6.72
2023-02-05T11:39:53.886Z,7.88
2023-02-05T11:42:24.118Z,7.93
2023-02-05T11:44:59.094Z,5.70
2023-02-05T11:47:38.692Z,6.25
2023-02-05T11:50:17.918Z,6.60
2023-02-05T11:52:46.036Z,6.40
2023-02-05T11:55:33.964Z,5.45
2023-02-05T11:58:04.052Z,5.25
2023-02-05T12:00:31.671Z,4.55
2023-02-05T12:03:18.462Z,5.25
2023-02-05T12:05:54.558Z,4.40
2023-02-05T12:08:31.263Z,5.07
2023-02-05T12:11:01.590Z,4.32
2023-02-05T12:13:40.952Z,4.95
2023-02-05T12:16:19.320Z,5.05
2023-02-05T12:19:15.907Z,5.13
2023-02-05T12:21:49.086Z,5.03
2023-02-05T12:24:35.359Z,5.40
2023-02-05T12:27:25.677Z,4.85
2023-02-05T12:30:08.219Z,5.03
2023-02-05T12:32:53.778Z,4.78
2023-02-05T12:35:42.938Z,4.95
2023-02-05T12:38:53.407Z,4.80
2023-02-05T12:41:48.368Z,4.40
2023-02-05T12:44:27.731Z,4.90
2023-02-05T12:46:55.001Z,5.35
2023-02-05T12:49:41.034Z,5.40
2023-02-05T12:52:21.948Z,4.70
2023-02-05T12:54:57.860Z,5.32
2023-02-05T12:57:29.865Z,5.63
2023-02-05T13:00:07.968Z,4.87
2023-02-05T13:03:01.616Z,4.57
2023-02-05T13:05:34.174Z,4.72
2023-02-05T13:08:25.517Z,4.57
2023-02-05T13:10:58.120Z,3.83
2023-02-05T13:13:35.452Z,4.35
2023-02-05T13:16:12.997Z,4.75
2023-02-05T13:18:43.658Z,4.55
2023-02-05T13:21:37.776Z,4.47
2023-02-05T13:24:44.295Z,4.28
2023-02-05T13:27:45.865Z,5.05
2023-02-05T13:30:21.013Z,4.63
2023-02-05T13:32:52.444Z,4.85
2023-02-05T13:35:22.205Z,4.22
2023-02-05T13:38:24.852Z,4.60
2023-02-05T13:41:29.848Z,3.87
2023-02-05T13:44:31.301Z,4.45
2023-02-05T13:47:23.540Z,4.25
2023-02-05T13:50:12.109Z,3.95
2023-02-05T13:52:58.354Z,5.72
2023-02-05T13:55:48.709Z,4.72
2023-02-05T13:58:24.192Z,3.80
2023-02-05T14:01:12.956Z,4.60
2023-02-05T14:03:43.740Z,4.38
2023-02-05T14:06:27.335Z,4.70
2023-02-05T14:09:22.893Z,5.22
2023-02-05T14:12:04.486Z,6.10
2023-02-05T14:14:41.010Z,5.72
2023-02-05T14:17:37.792Z,5.45
2023-02-05T14:20:15.344Z,4.63
2023-02-05T14:22:46.138Z,4.70
2023-02-05T14:25:36.087Z,5.60
2023-02-05T14:28:16.483Z,5.88
2023-02-05T14:31:00.534Z,5.30
2023-02-05T14:33:35.412Z,4.70
2023-02-05T14:36:18.229Z,5.53
2023-02-05T14:38:53.969Z,5.32
2023-02-05T14:41:22.691Z,5.10
2023-02-05T14:43:59.599Z,4.82
2023-02-05T14:46:35.515Z,4.65
2023-02-05T14:49:05.585Z,5.85
2023-02-05T14:51:39.194Z,5.15
2023-02-05T14:54:15.536Z,5.18
2023-02-05T14:56:47.738Z,5.32
2023-02-05T14:59:39.513Z,5.35
2023-02-05T15:02:45.768Z,5.28
2023-02-05T15:05:37.338Z,5.20
2023-02-05T15:08:42.032Z,4.57
2023-02-05T15:11:24.254Z,5.40
2023-02-05T15:14:20.921Z,4.53
2023-02-05T15:16:51.357Z,4.88
2023-02-05T15:19:19.743Z,5.57
2023-02-05T15:21:50.384Z,6.07
2023-02-05T15:24:24.894Z,5.25
2023-02-05T15:27:16.141Z,5.38
2023-02-05T15:29:48.932Z,6.20
2023-02-05T15:32:30.149Z,5.15
2023-02-05T15:35:17.729Z,5.57
2023-02-05T15:37:53.277Z,5.75
2023-02-05T15:40:32.818Z,5.78
2023-02-05T15:43:10.290Z,6.22
2023-02-05T15:45:42.727Z,5.65
2023-02-05T15:48:10.081Z,5.50
2023-02-05T15:50:46.493Z,5.88
2023-02-05T15:53:35.146Z,6.00
2023-02-05T15:56:20.957Z,5.15
2023-02-05T15:59:00.514Z,6.70
2023-02-05T16:01:33.814Z,5.80
2023-02-05T16:04:01.840Z,6.45
2023-02-05T16:06:31.713Z,6.03
2023-02-05T16:08:59.336Z,6.25
2023-02-05T16:11:35.055Z,6.13
2023-02-05T16:14:16.566Z,5.68
2023-02-05T16:16:52.814Z,5.60
2023-02-05T16:19:27.628Z,5.70
2023-02-05T16:22:32.716Z,6.20
2023-02-05T16:25:02.230Z,6.30
2023-02-05T16:27:34.173Z,6.45
2023-02-05T16:30:08.347Z,6.60
2023-02-05T16:32:42.469Z,6.05
2023-02-05T16:35:35.600Z,6.35
2023-02-05T16:38:08.842Z,6.38
2023-02-05T16:40:43.227Z,6.43
2023-02-05T16:43:37.653Z,7.43
2023-02-05T16:46:08.143Z,7.38
2023-02-05T16:48:36.794Z,6.97
2023-02-05T16:51:08.018Z,6.75
2023-02-05T16:53:37.040Z,5.53
2023-02-05T16:56:19.643Z,7.13
2023-02-05T16:58:54.443Z,7.35
2023-02-05T17:01:43.178Z,6.68
2023-02-05T17:04:35.559Z,6.78
2023-02-05T17:07:05.227Z,6.85
2023-02-05T17:09:38.121Z,6.47
2023-02-05T17:12:38.756Z,7.03
2023-02-05T17:15:18.085Z,6.47
2023-02-05T17:17:56.936Z,6.97
2023-02-05T17:20:28.746Z,7.03
2023-02-05T17:23:17.114Z,7.70
2023-02-05T17:25:55.491Z,7.57
2023-02-05T17:28:28.622Z,6.68
2023-02-05T17:31:02.658Z,6.70
2023-02-05T17:33:30.426Z,6.68
2023-02-05T17:35:57.802Z,7.00
2023-02-05T17:38:25.361Z,6.30
2023-02-05T17:41:15.795Z,7.00
2023-02-05T17:43:43.191Z,6.72
2023-02-05T17:46:15.807Z,6.43
2023-02-05T17:48:44.912Z,7.22
2023-02-05T17:51:23.308Z,7.78
2023-02-05T17:53:52.795Z,6.70
2023-02-05T17:56:21.488Z,7.47
2023-02-05T17:58:57.172Z,8.18
2023-02-05T18:01:24.720Z,6.72
2023-02-05T18:03:52.264Z,7.05
2023-02-05T18:06:20.174Z,7.82
2023-02-05T18:08:47.631Z,8.38
2023-02-05T18:11:15.153Z,11.45
2023-02-05T18:13:42.790Z,7.38
2023-02-05T18:16:12.212Z,6.13
2023-02-05T18:18:39.967Z,7.13
2023-02-05T18:21:07.591Z,7.90
2023-02-05T18:23:35.562Z,7.70
2023-02-05T18:26:06.165Z,7.35
2023-02-05T18:28:35.172Z,6.93
2023-02-05T18:31:07.816Z,7.00
2023-02-05T18:33:35.858Z,6.75
2023-02-05T18:36:08.756Z,7.22
2023-02-05T18:41:08.070Z,6.57
2023-02-05T18:43:36.411Z,7.73
2023-02-05T18:46:12.359Z,6.68
2023-02-05T18:48:45.027Z,7.53
2023-02-05T18:51:17.750Z,7.47
2023-02-05T18:53:50.635Z,7.25
2023-02-05T18:59:03.447Z,7.03
2023-02-05T19:01:36.235Z,9.10
2023-02-05T19:04:13.918Z,7.32
2023-02-05T19:06:47.936Z,9.93
2023-02-05T19:12:03.712Z,8.10
2023-02-05T19:14:31.707Z,7.95
2023-02-05T19:17:13.888Z,6.85
2023-02-05T19:19:47.882Z,7.90
2023-02-05T19:22:20.825Z,7.05
2023-02-05T19:24:58.820Z,7.15
2023-02-05T19:27:27.950Z,7.60
2023-02-05T19:30:10.797Z,6.47
2023-02-05T19:35:12.677Z,7.68
2023-02-05T19:37:44.202Z,7.18
2023-02-05T19:42:57.319Z,8.00
2023-02-05T19:45:24.720Z,8.57
2023-02-05T19:48:01.777Z,7.57
2023-02-05T19:50:41.153Z,7.75
2023-02-05T19:53:14.560Z,8.07
2023-02-05T19:56:11.380Z,7.28
2023-02-05T19:58:52.520Z,7.70
2023-02-05T20:01:27.960Z,7.32
2023-02-05T20:04:14.151Z,7.57
2023-02-05T20:06:51.406Z,7.78
2023-02-05T20:12:04.546Z,7.30
2023-02-05T20:14:46.264Z,8.93
2023-02-05T20:17:17.893Z,8.02
2023-02-05T20:19:45.527Z,8.30
2023-02-05T20:22:19.277Z,8.38
2023-02-05T20:24:47.469Z,7.68
2023-02-05T20:27:16.859Z,8.05
2023-02-05T20:30:03.461Z,9.93
2023-02-05T20:32:30.971Z,8.63
2023-02-05T20:34:58.484Z,9.13
2023-02-05T20:37:25.993Z,8.50
2023-02-05T20:40:07.120Z,9.57
2023-02-05T20:42:34.472Z,9.48
2023-02-05T20:45:01.871Z,10.73
2023-02-05T20:47:29.384Z,9.50
2023-02-05T20:49:56.814Z,9.50
2023-02-05T20:52:24.247Z,9.45
2023-02-05T20:54:52.060Z,8.23
2023-02-05T20:57:20.580Z,9.23
2023-02-05T20:59:48.772Z,9.25
2023-02-05T21:02:16.727Z,8.73
2023-02-05T21:04:44.670Z,9.45
2023-02-05T21:07:12.120Z,9.05
2023-02-05T21:09:39.524Z,9.25
2023-02-05T21:12:07.346Z,9.48
2023-02-05T21:14:35.272Z,10.00
2023-02-05T21:17:03.234Z,8.68
2023-02-05T21:19:33.711Z,9.52
2023-02-05T21:22:01.491Z,8.75
2023-02-05T21:24:29.052Z,8.95
2023-02-05T21:26:56.900Z,8.10
2023-02-05T21:29:24.757Z,8.35
2023-02-05T21:31:56.584Z,7.90
2023-02-05T21:34:26.810Z,10.13
2023-02-05T21:36:55.707Z,8.82
2023-02-05T21:39:24.130Z,8.75
2023-02-05T21:41:52.204Z,9.10
2023-02-05T21:44:20.009Z,8.77
2023-02-05T21:46:48.403Z,9.23
2023-02-05T21:49:16.174Z,10.13
2023-02-05T21:51:44.717Z,9.43
2023-02-05T21:54:12.250Z,8.68
2023-02-05T21:56:41.859Z,9.98
2023-02-05T21:59:12.914Z,8.95
2023-02-05T22:01:41.310Z,10.25
2023-02-05T22:04:14.254Z,9.50
2023-02-05T22:09:16.763Z,9.93
2023-02-05T22:11:44.767Z,9.25
2023-02-05T22:14:12.538Z,10.07
2023-02-05T22:16:40.028Z,9.07
2023-02-05T22:19:07.987Z,9.70
2023-02-05T22:21:37.752Z,9.90
2023-02-05T22:24:06.731Z,10.00
2023-02-05T22:26:37.424Z,10.90
2023-02-05T22:29:06.888Z,10.60
2023-02-05T22:31:35.120Z,11.27
2023-02-05T22:34:02.833Z,10.93
2023-02-05T22:36:33.790Z,10.05
2023-02-05T22:39:01.596Z,9.80
2023-02-05T22:41:31.712Z,10.82
2023-02-05T22:44:00.745Z,10.30
2023-02-05T22:46:36.921Z,10.60
2023-02-05T22:49:05.284Z,9.95
2023-02-05T22:51:35.460Z,9.77
2023-02-05T22:54:03.141Z,10.45
2023-02-05T22:56:30.517Z,10.27
2023-02-05T22:58:58.081Z,9.23
2023-02-05T23:01:28.039Z,10.50
2023-02-05T23:03:56.749Z,9.88
2023-02-05T23:06:30.138Z,10.57
2023-02-05T23:09:01.135Z,11.07
2023-02-05T23:11:34.714Z,15.73
2023-02-05T23:14:03.476Z,16.90
2023-02-05T23:16:38.784Z,11.80
2023-02-05T23:19:09.272Z,9.93
2023-02-05T23:21:38.257Z,10.95
2023-02-05T23:24:06.551Z,9.85
2023-02-05T23:26:38.574Z,10.80
2023-02-05T23:29:06.542Z,9.43
2023-02-05T23:31:34.206Z,10.30
2023-02-05T23:34:02.472Z,10.68
2023-02-05T23:36:30.098Z,10.15
2023-02-05T23:38:57.544Z,10.10
2023-02-05T23:41:37.190Z,10.57
2023-02-05T23:44:18.207Z,9.25
2023-02-05T23:46:46.911Z,9.38
2023-02-05T23:49:14.814Z,8.98
2023-02-05T23:51:42.228Z,10.77
2023-02-05T23:54:11.078Z,9.52
2023-02-05T23:56:39.112Z,9.38
2023-02-05T23:59:07.478Z,9.77
